createdAt,value
2022-11-05T00:00:35.047Z,0.25
2022-11-05T00:03:21.164Z,0.20
2022-11-05T00:06:04.703Z,0.10
2022-11-05T00:08:50.244Z,0.37
2022-11-05T00:11:18.570Z,0.20
2022-11-05T00:14:05.598Z,0.30
2022-11-05T00:16:45.161Z,0.30
2022-11-05T00:19:13.675Z,0.15
2022-11-05T00:21:59.911Z,0.23
2022-11-05T00:24:45.680Z,0.23
2022-11-05T00:27:13.696Z,0.20
2022-11-05T00:29:41.242Z,0.28
2022-11-05T00:32:09.282Z,0.10
2022-11-05T00:34:37.251Z,0.30
2022-11-05T00:37:05.378Z,0.13
2022-11-05T00:39:32.987Z,0.20
2022-11-05T00:42:19.033Z,0.23
2022-11-05T00:45:04.911Z,0.10
2022-11-05T00:47:51.932Z,0.20
2022-11-05T00:50:21.698Z,0.30
2022-11-05T00:52:56.853Z,0.13
2022-11-05T00:55:34.379Z,0.30
2022-11-05T00:58:03.503Z,0.10
2022-11-05T01:00:32.890Z,0.23
2022-11-05T01:03:02.816Z,0.15
2022-11-05T01:05:31.608Z,0.13
2022-11-05T01:08:01.973Z,0.37
2022-11-05T01:10:30.468Z,0.20
2022-11-05T01:12:58.866Z,0.23
2022-11-05T01:15:26.904Z,0.20
2022-11-05T01:17:54.424Z,0.20
2022-11-05T01:20:22.175Z,0.30
2022-11-05T01:22:49.689Z,0.30
2022-11-05T01:25:17.336Z,0.10
2022-11-05T01:27:45.365Z,0.17
2022-11-05T01:30:14.159Z,0.23
2022-11-05T01:32:41.841Z,0.20
2022-11-05T01:35:13.406Z,0.10
2022-11-05T01:37:42.210Z,0.20
2022-11-05T01:40:15.173Z,0.20
2022-11-05T01:42:51.336Z,0.20
2022-11-05T01:45:22.907Z,0.10
2022-11-05T01:48:06.646Z,0.10
2022-11-05T01:50:55.910Z,0.20
2022-11-05T01:53:37.298Z,0.10
2022-11-05T01:56:11.616Z,0.10
2022-11-05T01:58:54.746Z,0.10
2022-11-05T02:01:23.577Z,0.10
2022-11-05T02:03:54.067Z,0.10
2022-11-05T02:06:23.014Z,0.17
2022-11-05T02:09:10.578Z,0.00
2022-11-05T02:11:38.450Z,0.23
2022-11-05T02:14:06.862Z,0.30
2022-11-05T02:16:44.357Z,0.25
2022-11-05T02:19:24.608Z,0.20
2022-11-05T02:22:12.733Z,0.10
2022-11-05T02:24:53.413Z,0.20
2022-11-05T02:27:33.498Z,0.20
2022-11-05T02:30:04.998Z,0.10
2022-11-05T02:32:54.141Z,0.13
2022-11-05T02:35:51.446Z,0.30
2022-11-05T02:38:25.534Z,0.10
2022-11-05T02:41:22.290Z,0.10
2022-11-05T02:43:59.307Z,0.10
2022-11-05T02:46:36.800Z,0.10
2022-11-05T02:49:08.493Z,0.10
2022-11-05T02:52:00.066Z,0.10
2022-11-05T02:54:48.471Z,0.20
2022-11-05T02:57:19.579Z,0.10
2022-11-05T02:59:47.249Z,0.10
2022-11-05T03:02:15.620Z,0.10
2022-11-05T03:04:43.386Z,0.10
2022-11-05T03:07:38.272Z,0.30
2022-11-05T03:10:12.576Z,0.10
2022-11-05T03:13:00.511Z,0.10
2022-11-05T03:15:40.549Z,0.10
2022-11-05T03:18:23.961Z,0.10
2022-11-05T03:21:01.426Z,0.10
2022-11-05T03:23:38.568Z,0.17
2022-11-05T03:26:12.763Z,0.10
2022-11-05T03:28:43.715Z,0.10
2022-11-05T03:31:16.816Z,0.10
2022-11-05T03:33:45.819Z,0.05
2022-11-05T03:36:23.569Z,0.10
2022-11-05T03:38:54.810Z,0.10
2022-11-05T03:41:25.070Z,0.00
2022-11-05T03:43:56.611Z,0.05
2022-11-05T03:46:31.029Z,0.10
2022-11-05T03:49:01.657Z,0.13
2022-11-05T03:51:38.988Z,0.10
2022-11-05T03:54:07.121Z,0.05
2022-11-05T03:57:00.915Z,0.05
2022-11-05T03:59:30.211Z,0.10
2022-11-05T04:01:58.862Z,0.10
2022-11-05T04:04:26.479Z,0.20
2022-11-05T04:07:11.959Z,0.13
2022-11-05T04:09:57.943Z,0.10
2022-11-05T04:12:44.066Z,0.10
2022-11-05T04:15:13.468Z,0.10
2022-11-05T04:17:41.207Z,0.10
2022-11-05T04:20:28.458Z,0.33
2022-11-05T04:23:23.025Z,0.03
2022-11-05T04:25:51.321Z,0.10
2022-11-05T04:28:18.718Z,0.10
2022-11-05T04:30:46.786Z,0.10
2022-11-05T04:33:16.262Z,0.10
2022-11-05T04:35:46.790Z,0.10
2022-11-05T04:38:19.420Z,0.10
2022-11-05T04:40:48.534Z,0.15
2022-11-05T04:43:18.814Z,0.53
2022-11-05T04:45:47.003Z,0.10
2022-11-05T04:48:14.565Z,0.10
2022-11-05T04:50:42.712Z,0.10
2022-11-05T04:53:10.291Z,0.10
2022-11-05T04:55:38.447Z,0.10
2022-11-05T04:58:06.395Z,0.15
2022-11-05T05:00:34.799Z,0.23
2022-11-05T05:03:02.783Z,0.60
2022-11-05T05:05:30.822Z,0.10
2022-11-05T05:08:02.573Z,0.25
2022-11-05T05:10:30.800Z,0.08
2022-11-05T05:12:58.728Z,0.20
2022-11-05T05:15:26.390Z,0.10
2022-11-05T05:17:57.021Z,0.20
2022-11-05T05:20:42.950Z,0.10
2022-11-05T05:23:11.297Z,0.40
2022-11-05T05:25:39.166Z,0.30
2022-11-05T05:28:07.247Z,0.00
2022-11-05T05:30:35.096Z,0.10
2022-11-05T05:33:04.119Z,0.10
2022-11-05T05:35:33.202Z,0.10
2022-11-05T05:38:00.930Z,0.10
2022-11-05T05:40:32.159Z,0.10
2022-11-05T05:42:59.878Z,0.20
2022-11-05T05:45:27.838Z,0.10
2022-11-05T05:47:56.766Z,0.13
2022-11-05T05:50:24.176Z,0.10
2022-11-05T05:52:53.120Z,0.20
2022-11-05T05:55:21.475Z,0.30
2022-11-05T05:57:50.166Z,0.28
2022-11-05T06:00:18.714Z,0.20
2022-11-05T06:02:46.780Z,0.17
2022-11-05T06:05:14.715Z,0.05
2022-11-05T06:07:42.754Z,0.15
2022-11-05T06:10:10.737Z,0.10
2022-11-05T06:12:38.557Z,0.15
2022-11-05T06:15:07.247Z,0.20
2022-11-05T06:17:35.088Z,0.20
2022-11-05T06:20:02.592Z,0.10
2022-11-05T06:22:30.256Z,0.10
2022-11-05T06:24:57.973Z,0.15
2022-11-05T06:27:25.501Z,0.20
2022-11-05T06:29:53.394Z,0.20
2022-11-05T06:32:21.485Z,0.23
2022-11-05T06:34:49.585Z,0.10
2022-11-05T06:37:17.884Z,0.40
2022-11-05T06:39:45.882Z,0.35
2022-11-05T06:42:20.567Z,0.20
2022-11-05T06:44:42.802Z,0.30
2022-11-05T06:47:10.264Z,0.20
2022-11-05T06:49:37.856Z,0.30
2022-11-05T06:52:05.605Z,0.30
2022-11-05T06:54:33.723Z,0.40
2022-11-05T06:57:01.313Z,0.20
2022-11-05T06:59:28.982Z,0.28
2022-11-05T07:01:57.225Z,0.20
2022-11-05T07:04:27.388Z,0.50
2022-11-05T07:06:54.812Z,0.57
2022-11-05T07:09:22.903Z,0.47
2022-11-05T07:11:50.634Z,0.60
2022-11-05T07:14:18.362Z,0.40
2022-11-05T07:16:45.973Z,0.37
2022-11-05T07:19:13.863Z,0.20
2022-11-05T07:21:43.157Z,0.20
2022-11-05T07:24:11.290Z,0.30
2022-11-05T07:26:38.839Z,0.20
2022-11-05T07:29:06.634Z,0.23
2022-11-05T07:31:35.695Z,0.20
2022-11-05T07:34:04.127Z,0.30
2022-11-05T07:36:32.422Z,0.00
2022-11-05T07:39:00.708Z,0.20
2022-11-05T07:41:28.697Z,0.30
2022-11-05T07:43:56.544Z,0.30
2022-11-05T07:46:24.469Z,0.42
2022-11-05T07:48:52.280Z,0.30
2022-11-05T07:51:20.083Z,0.70
2022-11-05T07:53:48.606Z,0.30
2022-11-05T07:56:17.753Z,0.20
2022-11-05T07:58:51.616Z,0.25
2022-11-05T08:01:19.639Z,0.20
2022-11-05T08:03:47.738Z,0.20
2022-11-05T08:06:15.398Z,0.20
2022-11-05T08:08:43.781Z,0.20
2022-11-05T08:11:12.757Z,0.30
2022-11-05T08:13:40.773Z,0.40
2022-11-05T08:16:09.462Z,0.50
2022-11-05T08:18:37.407Z,0.40
2022-11-05T08:21:06.038Z,0.37
2022-11-05T08:23:34.127Z,1.32
2022-11-05T08:26:05.299Z,4.15
2022-11-05T08:28:34.591Z,1.90
2022-11-05T08:31:06.105Z,0.60
2022-11-05T08:33:35.575Z,0.82
2022-11-05T08:36:05.247Z,0.60
2022-11-05T08:38:32.955Z,0.60
2022-11-05T08:41:00.890Z,0.60
2022-11-05T08:43:29.580Z,0.80
2022-11-05T08:45:57.303Z,0.98
2022-11-05T08:48:34.195Z,0.80
2022-11-05T08:51:03.237Z,0.80
2022-11-05T08:53:33.167Z,0.95
2022-11-05T08:56:01.233Z,1.00
2022-11-05T08:58:43.671Z,1.30
2022-11-05T09:01:11.401Z,1.05
2022-11-05T09:03:40.111Z,1.20
2022-11-05T09:06:11.566Z,1.50
2022-11-05T09:08:42.086Z,1.47
2022-11-05T09:11:10.215Z,1.52
2022-11-05T09:13:37.906Z,1.10
2022-11-05T09:16:06.146Z,1.70
2022-11-05T09:18:34.171Z,2.15
2022-11-05T09:21:02.017Z,1.90
2022-11-05T09:23:31.155Z,2.58
2022-11-05T09:25:59.290Z,2.10
2022-11-05T09:28:26.844Z,2.30
2022-11-05T09:30:54.583Z,1.80
2022-11-05T09:33:24.754Z,2.42
2022-11-05T09:35:53.800Z,2.10
2022-11-05T09:38:21.723Z,1.80
2022-11-05T09:41:01.771Z,2.12
2022-11-05T09:43:33.046Z,1.47
2022-11-05T09:46:07.267Z,1.70
2022-11-05T09:48:36.225Z,1.22
2022-11-05T09:51:05.476Z,1.25
2022-11-05T09:53:37.078Z,0.88
2022-11-05T09:56:05.574Z,0.90
2022-11-05T09:59:04.274Z,0.65
2022-11-05T10:01:38.266Z,1.30
2022-11-05T10:04:13.633Z,1.00
2022-11-05T10:06:45.207Z,0.93
2022-11-05T10:09:17.793Z,1.10
2022-11-05T10:11:49.405Z,1.22
2022-11-05T10:14:23.955Z,0.93
2022-11-05T10:16:55.063Z,0.90
2022-11-05T10:19:25.875Z,1.10
2022-11-05T10:22:07.174Z,0.93
2022-11-05T10:27:29.508Z,1.00
2022-11-05T10:29:57.815Z,0.90
2022-11-05T10:32:32.020Z,1.52
2022-11-05T10:35:02.321Z,1.07
2022-11-05T10:37:31.072Z,1.45
2022-11-05T10:39:58.974Z,0.90
2022-11-05T10:42:42.489Z,0.88
2022-11-05T10:45:16.853Z,1.00
2022-11-05T10:48:14.194Z,0.95
2022-11-05T10:50:44.646Z,1.10
2022-11-05T10:53:15.804Z,1.47
2022-11-05T10:55:53.287Z,0.98
2022-11-05T10:58:25.240Z,1.32
2022-11-05T11:00:58.763Z,1.82
2022-11-05T11:03:42.273Z,0.90
2022-11-05T11:06:19.671Z,0.98
2022-11-05T11:08:49.534Z,1.02
2022-11-05T11:11:36.418Z,0.80
2022-11-05T11:14:07.817Z,1.40
2022-11-05T11:16:45.047Z,0.60
2022-11-05T11:19:25.536Z,1.02
2022-11-05T11:22:13.440Z,0.85
2022-11-05T11:24:44.314Z,1.20
2022-11-05T11:27:15.699Z,1.02
2022-11-05T11:29:49.432Z,1.35
2022-11-05T11:32:18.376Z,1.15
2022-11-05T11:34:48.810Z,1.22
2022-11-05T11:37:20.565Z,0.98
2022-11-05T11:39:58.107Z,1.12
2022-11-05T11:42:32.187Z,1.25
2022-11-05T11:45:03.674Z,1.35
2022-11-05T11:47:32.635Z,1.22
2022-11-05T11:50:02.301Z,2.77
2022-11-05T11:52:36.775Z,2.08
2022-11-05T11:55:17.574Z,1.32
2022-11-05T11:57:52.111Z,1.30
2022-11-05T12:00:22.522Z,1.17
2022-11-05T12:02:57.222Z,1.37
2022-11-05T12:05:39.138Z,1.30
2022-11-05T12:08:45.748Z,1.42
2022-11-05T12:11:17.611Z,1.27
2022-11-05T12:13:54.876Z,1.12
2022-11-05T12:16:53.341Z,0.78
2022-11-05T12:19:53.571Z,0.88
2022-11-05T12:22:30.681Z,1.10
2022-11-05T12:25:29.413Z,1.42
2022-11-05T12:28:22.972Z,1.20
2022-11-05T12:30:57.343Z,1.02
2022-11-05T12:33:34.554Z,1.00
2022-11-05T12:36:11.640Z,1.25
2022-11-05T12:39:01.306Z,1.10
2022-11-05T12:41:53.692Z,1.10
2022-11-05T12:44:25.052Z,0.78
2022-11-05T12:47:23.729Z,1.00
2022-11-05T12:50:06.892Z,1.07
2022-11-05T12:52:44.487Z,1.05
2022-11-05T12:55:15.862Z,1.30
2022-11-05T12:57:47.387Z,0.98
2022-11-05T13:00:24.120Z,2.58
2022-11-05T13:02:58.723Z,2.30
2022-11-05T13:05:48.443Z,1.30
2022-11-05T13:08:26.146Z,0.90
2022-11-05T13:11:00.245Z,1.00
2022-11-05T13:13:31.406Z,1.52
2022-11-05T13:16:35.744Z,1.55
2022-11-05T13:19:24.298Z,1.57
2022-11-05T13:22:16.600Z,1.98
2022-11-05T13:24:52.895Z,1.87
2022-11-05T13:27:39.356Z,1.52
2022-11-05T13:30:11.324Z,1.60
2022-11-05T13:32:41.651Z,1.52
2022-11-05T13:35:15.882Z,1.40
2022-11-05T13:38:05.991Z,1.55
2022-11-05T13:40:42.963Z,1.80
2022-11-05T13:43:26.296Z,1.55
2022-11-05T13:46:14.013Z,1.30
2022-11-05T13:49:18.681Z,1.30
2022-11-05T13:51:55.928Z,1.73
2022-11-05T13:54:27.551Z,1.70
2022-11-05T13:57:04.962Z,2.15
2022-11-05T13:59:42.109Z,1.75
2022-11-05T14:02:19.400Z,1.98
2022-11-05T14:05:01.561Z,1.87
2022-11-05T14:07:32.223Z,2.10
2022-11-05T14:10:16.129Z,2.35
2022-11-05T14:12:51.625Z,1.65
2022-11-05T14:15:23.712Z,1.90
2022-11-05T14:18:06.386Z,2.30
2022-11-05T14:20:37.819Z,1.65
2022-11-05T14:23:27.546Z,2.50
2022-11-05T14:25:58.597Z,2.55
2022-11-05T14:28:38.843Z,2.67
2022-11-05T14:31:54.575Z,3.00
2022-11-05T14:34:11.074Z,2.65
2022-11-05T14:36:44.842Z,3.35
2022-11-05T14:39:22.044Z,3.15
2022-11-05T14:42:02.306Z,3.27
2022-11-05T14:44:32.991Z,3.67
2022-11-05T14:47:07.356Z,3.60
2022-11-05T14:49:39.430Z,3.45
2022-11-05T14:52:10.360Z,5.75
2022-11-05T14:54:44.649Z,9.58
2022-11-05T14:57:18.758Z,5.50
2022-11-05T15:02:29.268Z,3.98
2022-11-05T15:05:17.475Z,4.95
2022-11-05T15:07:45.297Z,4.92
2022-11-05T15:10:16.203Z,5.05
2022-11-05T15:12:48.054Z,4.92
2022-11-05T15:15:31.399Z,4.83
2022-11-05T15:18:06.130Z,4.92
2022-11-05T15:20:43.876Z,4.62
2022-11-05T15:23:17.881Z,5.05
2022-11-05T15:26:07.495Z,5.28
2022-11-05T15:28:51.030Z,5.83
2022-11-05T15:31:28.828Z,4.67
2022-11-05T15:34:21.152Z,5.78
2022-11-05T15:36:57.506Z,5.30
2022-11-05T15:39:35.393Z,4.90
2022-11-05T15:42:06.550Z,4.30
2022-11-05T15:44:40.503Z,3.42
2022-11-05T15:47:28.963Z,3.92
2022-11-05T15:49:59.607Z,3.92
2022-11-05T15:52:41.694Z,2.98
2022-11-05T15:55:15.847Z,2.70
2022-11-05T15:57:52.440Z,2.90
2022-11-05T16:00:23.431Z,2.50
2022-11-05T16:03:00.782Z,2.30
2022-11-05T16:05:31.317Z,2.25
2022-11-05T16:08:01.539Z,2.72
2022-11-05T16:10:32.353Z,2.47
2022-11-05T16:13:23.378Z,2.83
2022-11-05T16:15:59.687Z,2.95
2022-11-05T16:18:33.855Z,2.92
2022-11-05T16:21:10.046Z,3.00
2022-11-05T16:23:56.574Z,2.72
2022-11-05T16:29:15.063Z,3.33
2022-11-05T16:31:51.448Z,3.77
2022-11-05T16:34:38.139Z,3.77
2022-11-05T16:37:10.726Z,3.60
2022-11-05T16:39:38.442Z,3.00
2022-11-05T16:42:26.130Z,3.60
2022-11-05T16:44:57.713Z,2.98
2022-11-05T16:47:26.556Z,4.12
2022-11-05T16:49:54.883Z,4.25
2022-11-05T16:52:22.558Z,3.83
2022-11-05T16:54:50.215Z,4.00
2022-11-05T16:57:30.207Z,3.75
2022-11-05T17:00:00.371Z,4.08
2022-11-05T17:02:28.944Z,5.37
2022-11-05T17:04:56.992Z,3.80
2022-11-05T17:07:24.639Z,4.25
2022-11-05T17:09:52.242Z,4.15
2022-11-05T17:12:19.780Z,4.65
2022-11-05T17:14:47.408Z,4.58
2022-11-05T17:17:15.133Z,4.20
2022-11-05T17:19:42.720Z,3.90
2022-11-05T17:22:10.555Z,4.53
2022-11-05T17:24:39.166Z,4.50
2022-11-05T17:27:06.817Z,4.50
2022-11-05T17:29:34.273Z,4.55
2022-11-05T17:32:01.987Z,4.45
2022-11-05T17:34:31.173Z,4.85
2022-11-05T17:36:59.123Z,4.53
2022-11-05T17:39:31.687Z,5.62
2022-11-05T17:41:58.191Z,5.10
2022-11-05T17:44:26.010Z,4.60
2022-11-05T17:46:53.765Z,4.78
2022-11-05T17:49:21.396Z,4.75
2022-11-05T17:51:49.411Z,5.08
2022-11-05T17:54:16.794Z,4.80
2022-11-05T17:56:44.990Z,5.37
2022-11-05T17:59:12.603Z,4.70
2022-11-05T18:01:44.082Z,4.90
2022-11-05T18:04:12.060Z,4.70
2022-11-05T18:06:41.088Z,5.37
2022-11-05T18:09:10.154Z,4.75
2022-11-05T18:11:39.193Z,5.00
2022-11-05T18:14:07.514Z,5.28
2022-11-05T18:16:35.411Z,4.97
2022-11-05T18:19:03.228Z,4.83
2022-11-05T18:21:38.407Z,5.30
2022-11-05T18:24:07.102Z,4.55
2022-11-05T18:26:35.259Z,5.25
2022-11-05T18:29:04.264Z,4.72
2022-11-05T18:31:32.574Z,5.50
2022-11-05T18:34:00.991Z,5.30
2022-11-05T18:36:30.788Z,5.90
2022-11-05T18:39:00.471Z,6.30
2022-11-05T18:41:28.375Z,5.92
2022-11-05T18:44:00.779Z,5.72
2022-11-05T18:46:57.254Z,5.33
2022-11-05T18:49:04.229Z,5.40
2022-11-05T18:51:31.953Z,5.37
2022-11-05T18:54:00.836Z,5.00
2022-11-05T18:56:28.136Z,4.42
2022-11-05T18:59:21.884Z,4.72
2022-11-05T19:01:28.130Z,5.55
2022-11-05T19:03:57.403Z,5.08
2022-11-05T19:06:26.067Z,4.35
2022-11-05T19:08:56.408Z,4.85
2022-11-05T19:11:26.231Z,5.03
2022-11-05T19:13:54.451Z,4.35
2022-11-05T19:16:24.846Z,4.33
2022-11-05T19:18:53.377Z,4.67
2022-11-05T19:21:25.909Z,4.50
2022-11-05T19:23:54.466Z,4.40
2022-11-05T19:26:28.592Z,3.87
2022-11-05T19:28:54.437Z,3.47
2022-11-05T19:31:23.743Z,3.42
2022-11-05T19:33:52.537Z,2.92
2022-11-05T19:36:25.875Z,2.87
2022-11-05T19:38:57.688Z,2.60
2022-11-05T19:41:26.568Z,2.60
2022-11-05T19:43:56.139Z,2.85
2022-11-05T19:46:24.833Z,2.50
2022-11-05T19:48:52.919Z,2.87
2022-11-05T19:51:29.430Z,2.77
2022-11-05T19:53:58.760Z,2.92
2022-11-05T19:56:30.048Z,2.10
2022-11-05T19:58:59.342Z,1.60
2022-11-05T20:01:29.915Z,2.20
2022-11-05T20:03:59.055Z,1.47
2022-11-05T20:06:31.800Z,1.60
2022-11-05T20:11:32.375Z,2.33
2022-11-05T20:13:59.863Z,1.70
2022-11-05T20:16:35.231Z,1.80
2022-11-05T20:19:03.648Z,1.57
2022-11-05T20:21:31.263Z,1.45
2022-11-05T20:23:59.833Z,1.42
2022-11-05T20:26:28.191Z,1.95
2022-11-05T20:28:56.091Z,1.77
2022-11-05T20:31:24.093Z,1.98
2022-11-05T20:33:52.253Z,1.50
2022-11-05T20:36:22.715Z,1.50
2022-11-05T20:38:52.034Z,1.25
2022-11-05T20:41:20.031Z,1.42
2022-11-05T20:43:48.246Z,1.52
2022-11-05T20:46:18.891Z,1.45
2022-11-05T20:48:46.397Z,2.10
2022-11-05T20:51:20.255Z,1.47
2022-11-05T20:53:48.985Z,1.50
2022-11-05T20:56:19.167Z,1.10
2022-11-05T20:58:47.411Z,1.12
2022-11-05T21:01:21.991Z,1.12
2022-11-05T21:03:49.406Z,1.27
2022-11-05T21:06:17.734Z,1.20
2022-11-05T21:08:48.958Z,1.20
2022-11-05T21:11:18.304Z,1.17
2022-11-05T21:13:47.092Z,1.40
2022-11-05T21:16:18.510Z,1.40
2022-11-05T21:18:47.771Z,1.25
2022-11-05T21:21:19.008Z,2.00
2022-11-05T21:23:47.393Z,1.85
2022-11-05T21:26:17.866Z,1.42
2022-11-05T21:28:45.415Z,1.27
2022-11-05T21:31:13.258Z,1.42
2022-11-05T21:33:41.271Z,1.57
2022-11-05T21:36:11.303Z,1.10
2022-11-05T21:38:39.834Z,1.15
2022-11-05T21:41:08.378Z,0.90
2022-11-05T21:43:38.111Z,1.22
2022-11-05T21:46:06.172Z,1.05
2022-11-05T21:48:34.099Z,1.45
2022-11-05T21:51:20.033Z,1.47
2022-11-05T21:54:06.440Z,1.27
2022-11-05T21:56:52.446Z,1.02
2022-11-05T21:59:41.339Z,1.10
2022-11-05T22:02:17.770Z,1.50
2022-11-05T22:04:48.470Z,1.30
2022-11-05T22:07:19.370Z,1.40
2022-11-05T22:09:47.859Z,1.10
2022-11-05T22:12:16.026Z,1.30
2022-11-05T22:14:44.210Z,1.47
2022-11-05T22:17:13.451Z,1.25
2022-11-05T22:19:40.735Z,1.25
2022-11-05T22:22:08.942Z,1.07
2022-11-05T22:24:37.413Z,0.95
2022-11-05T22:27:08.414Z,1.05
2022-11-05T22:29:39.224Z,1.15
2022-11-05T22:32:07.057Z,1.27
2022-11-05T22:34:34.748Z,1.15
2022-11-05T22:37:02.162Z,0.93
2022-11-05T22:39:30.075Z,1.00
2022-11-05T22:41:58.892Z,1.10
2022-11-05T22:44:27.928Z,1.02
2022-11-05T22:46:56.266Z,0.80
2022-11-05T22:49:24.099Z,1.00
2022-11-05T22:51:52.370Z,0.85
2022-11-05T22:54:20.702Z,0.80
2022-11-05T22:56:50.139Z,0.72
2022-11-05T22:59:20.005Z,0.50
2022-11-05T23:01:50.130Z,0.50
2022-11-05T23:04:18.239Z,0.60
2022-11-05T23:07:04.629Z,0.85
2022-11-05T23:09:53.077Z,0.50
2022-11-05T23:12:27.511Z,0.75
2022-11-05T23:14:59.661Z,0.60
2022-11-05T23:17:46.391Z,0.40
2022-11-05T23:20:35.575Z,0.55
2022-11-05T23:23:21.988Z,0.70
2022-11-05T23:25:49.884Z,0.62
2022-11-05T23:28:19.102Z,0.50
2022-11-05T23:31:04.696Z,0.60
2022-11-05T23:33:34.714Z,0.70
2022-11-05T23:36:21.696Z,0.60
2022-11-05T23:38:49.415Z,0.50
2022-11-05T23:41:35.872Z,0.72
2022-11-05T23:44:24.193Z,0.50
2022-11-05T23:47:05.895Z,0.70
2022-11-05T23:49:36.704Z,0.60
2022-11-05T23:52:05.001Z,0.57
2022-11-05T23:54:33.007Z,0.40
2022-11-05T23:57:00.926Z,0.50
2022-11-05T23:59:29.113Z,0.30
